Terminal Aerodrome Forecast
Issued by NWS Charleston, WV

Home | Current Version | Previous Version | Text Only | Print | Product List | Glossary On
Versions: 1 2 3 4 5 6 7 8 9 10 11 12 13 14 15 16 17 18 19 20 21 22 23 24 25 26 27 28 29
000
FTUS41 KRLX 210800 AAA
TAFEKN
TAF AMD
KEKN 210858Z 2109/2206 00000KT P6SM -SHRA BKN030
     FM211200 00000KT 6SM -SHRA BR OVC025
     FM211700 28006KT 6SM -TSRA BR OVC035CB
     FM220000 30005KT 6SM -SHRA BR OVC015
     FM220300 32004KT 5SM -SHRA BR OVC025
     FM220400 VRB03KT 5SM -SHRA BR OVC015=

USA.gov is the U.S. government's official web portal to all federal, state and local government web resources and services.